Time;durP1;ratioP1;P1;durP2;ratioP2;P2;SDS_P1;SDS_P2;PMS_P1;PMS_P2;Temp;Humidity;BMP_temperature;BMP_pressure;BME280_temperature;BME280_humidity;BME280_pressure;Samples;Min_cycle;Max_cycle;Signal;HPM_P1;HPM_P2
2022/01/31 00:02:26;;;;;;;35.30;7.23;;;;;;;;;;5064905;28;20475;-79
2022/01/31 00:04:52;;;;;;;25.50;6.87;;;;;;;;;;5067254;28;20494;-77
2022/01/31 00:07:18;;;;;;;30.97;7.17;;;;;;;;;;5066299;28;20520;-78
2022/01/31 00:09:45;;;;;;;22.20;5.40;;;;;;;;;;5066744;28;20478;-79
2022/01/31 00:12:13;;;;;;;25.30;7.23;;;;;;;;;;5067603;28;20477;-78
2022/01/31 00:14:42;;;;;;;29.67;8.23;;;;;;;;;;5065680;28;20477;-77
2022/01/31 00:17:09;;;;;;;22.70;7.60;;;;;;;;;;5068215;28;20481;-78
2022/01/31 00:19:37;;;;;;;33.43;7.60;;;;;;;;;;5065959;28;20475;-79
2022/01/31 00:22:03;;;;;;;36.83;7.10;;;;;;;;;;5067338;28;20490;-77
2022/01/31 00:24:30;;;;;;;33.67;7.20;;;;;;;;;;5067350;28;20467;-79
2022/01/31 00:26:56;;;;;;;28.53;7.67;;;;;;;;;;5066953;28;20454;-78
2022/01/31 00:29:22;;;;;;;29.47;7.60;;;;;;;;;;5065780;28;20877;-79
2022/01/31 00:31:48;;;;;;;30.27;7.40;;;;;;;;;;5071474;28;20490;-78
2022/01/31 00:34:15;;;;;;;25.20;7.80;;;;;;;;;;5068550;28;22714;-79
2022/01/31 00:36:42;;;;;;;30.53;6.20;;;;;;;;;;5071074;28;20501;-78
2022/01/31 00:39:09;;;;;;;27.13;7.27;;;;;;;;;;5071103;28;20458;-78
2022/01/31 00:41:35;;;;;;;21.27;7.77;;;;;;;;;;5070285;28;20532;-79
2022/01/31 00:44:12;;;;;;;41.50;10.63;;;;;;;;;;5071333;28;20474;-80
2022/01/31 00:46:42;;;;;;;20.50;6.93;;;;;;;;;;5069071;28;20477;-79
2022/01/31 00:49:12;;;;;;;41.47;11.03;;;;;;;;;;5068645;28;20542;-78
2022/01/31 00:51:38;;;;;;;21.77;6.50;;;;;;;;;;5070879;28;20459;-78
2022/01/31 00:54:06;;;;;;;36.60;8.00;;;;;;;;;;5069708;28;20509;-78
2022/01/31 00:56:32;;;;;;;30.33;6.53;;;;;;;;;;5070640;28;20454;-79
2022/01/31 00:58:59;;;;;;;31.30;7.00;;;;;;;;;;5067419;28;20482;-78
2022/01/31 01:01:25;;;;;;;27.33;5.93;;;;;;;;;;5070919;28;20462;-78
2022/01/31 01:03:51;;;;;;;29.30;6.30;;;;;;;;;;5067880;28;20463;-78
2022/01/31 01:06:17;;;;;;;24.57;6.07;;;;;;;;;;5069332;28;20524;-78
2022/01/31 01:08:43;;;;;;;23.63;7.07;;;;;;;;;;5071004;28;20458;-78
2022/01/31 01:11:11;;;;;;;23.00;6.97;;;;;;;;;;5070153;28;20711;-78
2022/01/31 01:13:37;;;;;;;21.03;6.73;;;;;;;;;;5070536;28;20447;-78
2022/01/31 01:16:04;;;;;;;23.67;5.80;;;;;;;;;;5067342;28;20471;-78
2022/01/31 01:18:30;;;;;;;31.47;7.87;;;;;;;;;;5069535;28;20734;-78
2022/01/31 01:20:56;;;;;;;30.17;6.57;;;;;;;;;;5066245;28;20479;-78
2022/01/31 01:23:22;;;;;;;27.33;7.03;;;;;;;;;;5070502;28;20913;-79
2022/01/31 01:25:49;;;;;;;25.23;6.87;;;;;;;;;;5069017;28;20467;-78
2022/01/31 01:28:19;;;;;;;29.10;6.40;;;;;;;;;;5067124;28;20542;-79
2022/01/31 01:30:46;;;;;;;29.40;6.87;;;;;;;;;;5067961;28;20489;-80
2022/01/31 01:33:18;;;;;;;25.83;5.70;;;;;;;;;;5071257;28;20867;-79
2022/01/31 01:35:47;;;;;;;31.33;7.30;;;;;;;;;;5069873;28;20471;-78
2022/01/31 01:38:16;;;;;;;18.77;6.70;;;;;;;;;;5066884;28;20483;-79
2022/01/31 01:40:42;;;;;;;19.00;6.50;;;;;;;;;;5067939;28;20506;-77
2022/01/31 01:43:09;;;;;;;29.33;7.57;;;;;;;;;;5068775;28;20479;-78
2022/01/31 01:45:37;;;;;;;29.30;6.50;;;;;;;;;;5068800;28;20467;-79
2022/01/31 01:48:06;;;;;;;29.87;7.70;;;;;;;;;;5068449;28;20447;-76
2022/01/31 01:50:32;;;;;;;32.00;8.30;;;;;;;;;;5069101;28;20471;-79
2022/01/31 01:52:58;;;;;;;17.73;7.20;;;;;;;;;;5069425;28;20508;-79
2022/01/31 01:55:24;;;;;;;31.07;7.80;;;;;;;;;;5070168;28;20467;-78
2022/01/31 01:57:51;;;;;;;15.70;6.50;;;;;;;;;;5068473;28;20452;-78
2022/01/31 02:00:24;;;;;;;29.30;8.43;;;;;;;;;;5065738;28;20877;-78
2022/01/31 02:02:51;;;;;;;36.37;6.40;;;;;;;;;;5068823;28;20596;-79
2022/01/31 02:05:18;;;;;;;18.67;9.43;;;;;;;;;;5067573;28;20541;-79
2022/01/31 02:07:45;;;;;;;23.43;6.00;;;;;;;;;;5067823;28;20451;-79
2022/01/31 02:10:12;;;;;;;33.07;8.57;;;;;;;;;;5067237;28;20509;-78
2022/01/31 02:12:38;;;;;;;20.67;6.70;;;;;;;;;;5069762;28;20463;-78
2022/01/31 02:15:05;;;;;;;23.00;8.23;;;;;;;;;;5068471;28;20491;-79
2022/01/31 02:17:31;;;;;;;17.97;6.67;;;;;;;;;;5069919;28;20470;-79
2022/01/31 02:19:59;;;;;;;19.97;6.30;;;;;;;;;;5068287;28;20482;-78
2022/01/31 02:22:27;;;;;;;18.87;6.10;;;;;;;;;;5100550;22;20487;-82
2022/01/31 02:24:53;;;;;;;23.30;6.90;;;;;;;;;;5078388;28;20475;-83
2022/01/31 02:27:23;;;;;;;21.23;6.53;;;;;;;;;;5079382;28;20459;-83
2022/01/31 02:29:49;;;;;;;19.70;7.13;;;;;;;;;;5077584;28;20475;-82
2022/01/31 02:32:20;;;;;;;17.50;6.20;;;;;;;;;;5080864;28;20483;-82
2022/01/31 02:34:46;;;;;;;23.47;6.40;;;;;;;;;;5087219;28;20505;-81
2022/01/31 02:37:12;;;;;;;21.10;6.37;;;;;;;;;;5088482;28;20443;-82
2022/01/31 02:39:40;;;;;;;21.83;6.63;;;;;;;;;;5086496;28;20529;-82
2022/01/31 02:42:06;;;;;;;26.30;8.17;;;;;;;;;;5087345;28;20487;-82
2022/01/31 02:44:32;;;;;;;21.67;7.07;;;;;;;;;;5087067;28;21004;-83
2022/01/31 02:46:59;;;;;;;23.53;6.90;;;;;;;;;;5085936;28;21066;-82
2022/01/31 02:49:33;;;;;;;28.93;7.93;;;;;;;;;;5085528;28;20458;-82
2022/01/31 02:52:02;;;;;;;26.67;7.50;;;;;;;;;;5087483;28;20470;-82
2022/01/31 02:54:29;;;;;;;20.80;6.67;;;;;;;;;;5088726;28;20494;-82
2022/01/31 02:56:57;;;;;;;16.27;6.00;;;;;;;;;;5085588;28;20451;-83
2022/01/31 02:59:23;;;;;;;20.23;6.10;;;;;;;;;;5086861;28;20520;-83
2022/01/31 03:01:49;;;;;;;22.60;7.07;;;;;;;;;;5084891;28;20486;-82
2022/01/31 03:04:15;;;;;;;18.50;7.47;;;;;;;;;;5084684;28;20877;-82
2022/01/31 03:06:48;;;;;;;16.50;7.63;;;;;;;;;;5086015;28;20462;-82
2022/01/31 03:09:15;;;;;;;24.80;6.80;;;;;;;;;;5087461;28;20457;-82
2022/01/31 03:11:41;;;;;;;20.20;6.70;;;;;;;;;;5086540;28;20478;-81
2022/01/31 03:14:09;;;;;;;15.43;6.60;;;;;;;;;;5086737;28;20802;-83
2022/01/31 03:16:40;;;;;;;21.07;7.00;;;;;;;;;;5085165;28;20443;-81
2022/01/31 03:19:06;;;;;;;21.90;8.07;;;;;;;;;;5086731;28;20451;-82
2022/01/31 03:21:32;;;;;;;27.40;8.57;;;;;;;;;;5082733;28;20477;-82
2022/01/31 03:23:58;;;;;;;31.60;8.23;;;;;;;;;;5087689;28;21025;-82
2022/01/31 03:26:25;;;;;;;22.33;8.07;;;;;;;;;;5087021;28;20447;-82
2022/01/31 03:28:53;;;;;;;17.80;9.90;;;;;;;;;;5083924;28;20459;-83
2022/01/31 03:31:21;;;;;;;31.67;9.60;;;;;;;;;;5086011;28;20577;-83
2022/01/31 03:33:48;;;;;;;13.37;8.90;;;;;;;;;;5084873;28;20447;-82
2022/01/31 03:36:14;;;;;;;17.80;9.60;;;;;;;;;;5083759;28;21215;-83
2022/01/31 03:38:41;;;;;;;22.53;10.77;;;;;;;;;;5087031;28;20442;-83
2022/01/31 03:41:07;;;;;;;16.53;10.20;;;;;;;;;;5085746;28;20556;-83
2022/01/31 03:43:33;;;;;;;16.90;9.37;;;;;;;;;;5086449;28;21030;-83
2022/01/31 03:46:00;;;;;;;19.37;9.30;;;;;;;;;;5086399;28;20496;-83
2022/01/31 03:48:28;;;;;;;17.67;11.17;;;;;;;;;;5085927;28;20462;-83
2022/01/31 03:50:54;;;;;;;18.67;9.77;;;;;;;;;;5086245;28;20474;-83
2022/01/31 03:53:20;;;;;;;23.87;10.43;;;;;;;;;;5084651;28;20465;-83
2022/01/31 03:55:47;;;;;;;20.00;11.20;;;;;;;;;;5085532;28;20490;-82
2022/01/31 03:58:13;;;;;;;23.63;12.20;;;;;;;;;;5083915;28;20479;-83
2022/01/31 04:00:39;;;;;;;29.27;11.83;;;;;;;;;;5086374;28;20517;-83
2022/01/31 04:03:06;;;;;;;24.73;10.50;;;;;;;;;;5085072;28;21204;-83
2022/01/31 04:05:33;;;;;;;20.53;12.40;;;;;;;;;;5087992;28;20477;-84
2022/01/31 04:08:00;;;;;;;25.23;10.80;;;;;;;;;;5088363;28;20875;-82
2022/01/31 04:10:27;;;;;;;25.67;11.47;;;;;;;;;;5087564;28;20504;-84
2022/01/31 04:12:53;;;;;;;21.50;10.40;;;;;;;;;;5088862;28;21082;-83
2022/01/31 04:15:19;;;;;;;25.73;11.50;;;;;;;;;;5088661;28;20465;-83
2022/01/31 04:17:46;;;;;;;27.70;10.60;;;;;;;;;;5087578;28;20451;-83
2022/01/31 04:20:12;;;;;;;26.23;14.87;;;;;;;;;;5087413;28;20467;-84
2022/01/31 04:22:46;;;;;;;23.63;11.77;;;;;;;;;;5089170;28;20486;-84
2022/01/31 04:25:27;;;;;;;28.87;13.93;;;;;;;;;;5088690;28;20479;-84
2022/01/31 04:28:01;;;;;;;29.43;12.83;;;;;;;;;;5085059;28;20494;-83
2022/01/31 04:30:27;;;;;;;26.83;13.73;;;;;;;;;;5086240;28;20517;-83
2022/01/31 04:32:53;;;;;;;27.80;13.90;;;;;;;;;;5084231;28;20840;-84
2022/01/31 04:35:20;;;;;;;25.80;13.50;;;;;;;;;;5083716;28;21045;-83
2022/01/31 04:37:47;;;;;;;28.87;13.60;;;;;;;;;;5088247;28;20449;-83
2022/01/31 04:40:14;;;;;;;25.60;13.50;;;;;;;;;;5087286;28;20481;-83
2022/01/31 04:42:42;;;;;;;32.07;15.50;;;;;;;;;;5086132;28;20557;-83
2022/01/31 04:45:09;;;;;;;28.47;15.00;;;;;;;;;;5086384;28;20476;-82
2022/01/31 04:47:35;;;;;;;32.17;15.10;;;;;;;;;;5086422;28;20499;-83
2022/01/31 04:50:02;;;;;;;32.90;14.43;;;;;;;;;;5085858;28;22383;-84
2022/01/31 04:52:28;;;;;;;36.57;16.30;;;;;;;;;;5086614;28;20545;-84
2022/01/31 04:54:55;;;;;;;30.93;16.37;;;;;;;;;;5085184;28;20466;-84
2022/01/31 04:57:22;;;;;;;34.40;16.60;;;;;;;;;;5086540;28;20472;-84
2022/01/31 04:59:49;;;;;;;30.13;16.03;;;;;;;;;;5086078;28;20474;-83
2022/01/31 05:02:15;;;;;;;24.17;14.97;;;;;;;;;;5088067;28;20837;-84
2022/01/31 05:04:41;;;;;;;25.90;15.90;;;;;;;;;;5086890;28;20470;-83
2022/01/31 05:07:08;;;;;;;34.90;17.37;;;;;;;;;;5086727;28;20453;-83
2022/01/31 05:09:34;;;;;;;29.03;15.43;;;;;;;;;;5084846;28;20470;-84
2022/01/31 05:12:02;;;;;;;28.47;16.60;;;;;;;;;;5085689;28;20473;-83
2022/01/31 05:14:28;;;;;;;25.67;16.57;;;;;;;;;;5085387;28;20536;-84
2022/01/31 05:16:54;;;;;;;27.50;18.13;;;;;;;;;;5085906;28;20527;-84
2022/01/31 05:19:20;;;;;;;25.97;17.60;;;;;;;;;;5084370;28;21211;-84
2022/01/31 05:21:47;;;;;;;37.13;18.70;;;;;;;;;;5083903;28;20473;-84
2022/01/31 05:24:13;;;;;;;32.13;17.53;;;;;;;;;;5085823;28;20532;-84
2022/01/31 05:26:39;;;;;;;24.00;16.70;;;;;;;;;;5082263;28;20523;-84
2022/01/31 05:29:07;;;;;;;33.60;17.63;;;;;;;;;;5084550;28;20481;-83
2022/01/31 05:31:33;;;;;;;25.10;17.53;;;;;;;;;;5075290;28;20458;-84
2022/01/31 05:33:59;;;;;;;24.57;16.67;;;;;;;;;;5083397;28;20454;-84
2022/01/31 05:36:25;;;;;;;24.40;18.30;;;;;;;;;;5076810;28;20524;-84
2022/01/31 05:38:52;;;;;;;18.70;15.37;;;;;;;;;;5084006;28;20450;-84
2022/01/31 05:41:19;;;;;;;32.83;16.90;;;;;;;;;;5081726;28;20486;-83
2022/01/31 05:43:46;;;;;;;22.60;16.47;;;;;;;;;;5086400;28;20559;-83
2022/01/31 05:46:14;;;;;;;24.40;16.53;;;;;;;;;;5083225;28;21381;-83
2022/01/31 05:48:40;;;;;;;22.13;15.60;;;;;;;;;;5084559;28;20450;-84
2022/01/31 05:51:09;;;;;;;24.13;15.40;;;;;;;;;;5082426;28;20483;-84
2022/01/31 05:53:36;;;;;;;22.93;14.83;;;;;;;;;;5082893;28;20873;-84
2022/01/31 05:56:03;;;;;;;23.43;15.30;;;;;;;;;;5082380;28;20482;-84
2022/01/31 05:58:29;;;;;;;22.73;15.40;;;;;;;;;;5082368;28;20508;-84
2022/01/31 06:00:55;;;;;;;24.03;16.70;;;;;;;;;;5078017;28;20528;-84
2022/01/31 06:03:23;;;;;;;18.33;14.97;;;;;;;;;;5081220;28;20491;-84
2022/01/31 06:05:49;;;;;;;23.03;14.87;;;;;;;;;;5080293;28;20475;-84
2022/01/31 06:08:15;;;;;;;16.63;13.70;;;;;;;;;;5080162;28;20550;-84
2022/01/31 06:10:45;;;;;;;20.40;14.00;;;;;;;;;;5081346;28;20524;-83
2022/01/31 06:13:11;;;;;;;20.53;14.40;;;;;;;;;;5078051;28;20478;-85
2022/01/31 06:15:37;;;;;;;21.57;14.50;;;;;;;;;;5081236;28;20499;-84
2022/01/31 06:18:04;;;;;;;15.73;13.50;;;;;;;;;;5080478;28;20492;-83
2022/01/31 06:20:31;;;;;;;17.37;13.50;;;;;;;;;;5079794;28;21031;-84
2022/01/31 06:22:57;;;;;;;18.87;14.47;;;;;;;;;;5080579;28;20879;-84
2022/01/31 06:25:24;;;;;;;18.10;14.23;;;;;;;;;;5081043;28;21057;-84
2022/01/31 06:27:51;;;;;;;23.00;15.23;;;;;;;;;;5077412;28;20463;-84
2022/01/31 06:30:17;;;;;;;18.33;14.80;;;;;;;;;;5079306;28;20477;-85
2022/01/31 06:32:44;;;;;;;18.17;14.37;;;;;;;;;;5078039;28;20478;-83
2022/01/31 06:35:10;;;;;;;15.60;13.60;;;;;;;;;;5077704;28;20474;-84
2022/01/31 06:37:38;;;;;;;19.47;13.90;;;;;;;;;;5079451;28;20451;-85
2022/01/31 06:40:05;;;;;;;17.37;14.17;;;;;;;;;;5080103;28;20528;-86
2022/01/31 06:42:31;;;;;;;23.27;14.53;;;;;;;;;;5078181;28;21039;-85
2022/01/31 06:44:57;;;;;;;25.37;15.10;;;;;;;;;;5078135;28;20929;-86
2022/01/31 06:47:25;;;;;;;18.13;13.90;;;;;;;;;;5076887;28;20870;-85
2022/01/31 06:49:51;;;;;;;19.37;14.97;;;;;;;;;;5079894;28;21378;-85
2022/01/31 06:52:18;;;;;;;23.53;15.37;;;;;;;;;;5083092;28;20471;-85
2022/01/31 06:54:49;;;;;;;20.50;16.03;;;;;;;;;;5081762;28;20471;-85
2022/01/31 06:57:16;;;;;;;17.83;13.90;;;;;;;;;;5079655;28;20455;-86
2022/01/31 06:59:42;;;;;;;20.80;15.30;;;;;;;;;;5079245;28;20470;-85
2022/01/31 07:02:08;;;;;;;19.33;15.40;;;;;;;;;;5078158;28;20520;-86
2022/01/31 07:04:34;;;;;;;20.67;15.23;;;;;;;;;;5078547;28;20478;-85
2022/01/31 07:07:01;;;;;;;17.67;14.33;;;;;;;;;;5080990;28;20451;-84
2022/01/31 07:09:27;;;;;;;20.67;15.10;;;;;;;;;;5079085;28;20517;-85
2022/01/31 07:11:59;;;;;;;25.43;15.17;;;;;;;;;;5080060;28;20577;-86
2022/01/31 07:14:32;;;;;;;24.97;17.00;;;;;;;;;;5081655;28;20519;-85
2022/01/31 07:16:58;;;;;;;23.67;15.50;;;;;;;;;;5080125;28;20507;-85
2022/01/31 07:19:27;;;;;;;20.40;14.40;;;;;;;;;;5074583;28;20474;-86
2022/01/31 07:21:54;;;;;;;25.37;16.33;;;;;;;;;;5080304;28;20485;-86
2022/01/31 07:24:24;;;;;;;27.33;16.37;;;;;;;;;;5081895;28;20485;-85
2022/01/31 07:26:50;;;;;;;25.13;15.67;;;;;;;;;;5081204;28;20450;-87
2022/01/31 07:29:20;;;;;;;23.50;15.10;;;;;;;;;;5080489;28;20463;-86
2022/01/31 07:31:46;;;;;;;26.37;15.53;;;;;;;;;;5079688;28;20493;-86
2022/01/31 07:34:13;;;;;;;21.63;15.17;;;;;;;;;;5079236;28;20442;-86
2022/01/31 07:36:40;;;;;;;22.47;15.90;;;;;;;;;;5078835;28;20462;-85
2022/01/31 07:39:06;;;;;;;23.63;17.77;;;;;;;;;;5079980;28;20452;-86
2022/01/31 07:41:32;;;;;;;28.13;16.03;;;;;;;;;;5080826;28;20496;-87
2022/01/31 07:43:58;;;;;;;21.73;15.93;;;;;;;;;;5080569;28;20608;-87
2022/01/31 07:46:26;;;;;;;20.53;16.03;;;;;;;;;;5074338;28;20511;-86
2022/01/31 07:48:54;;;;;;;24.23;16.40;;;;;;;;;;5079915;28;20449;-85
2022/01/31 07:51:20;;;;;;;22.40;16.10;;;;;;;;;;5077175;28;20478;-85
2022/01/31 07:53:46;;;;;;;25.77;16.17;;;;;;;;;;5075935;28;20974;-85
2022/01/31 07:56:15;;;;;;;20.30;15.73;;;;;;;;;;5076860;28;20494;-85
2022/01/31 07:58:41;;;;;;;23.57;17.70;;;;;;;;;;5079169;28;20471;-85
2022/01/31 08:01:08;;;;;;;25.63;16.33;;;;;;;;;;5077354;28;20478;-86
2022/01/31 08:03:36;;;;;;;25.73;17.47;;;;;;;;;;5078533;28;20974;-86
2022/01/31 08:06:03;;;;;;;24.63;16.33;;;;;;;;;;5078965;28;20512;-86
2022/01/31 08:08:30;;;;;;;28.97;17.73;;;;;;;;;;5081408;28;20864;-86
2022/01/31 08:10:57;;;;;;;26.13;17.70;;;;;;;;;;5076227;28;21067;-86
2022/01/31 08:13:24;;;;;;;24.07;16.87;;;;;;;;;;5079401;28;20466;-86
2022/01/31 08:16:02;;;;;;;29.43;19.23;;;;;;;;;;5076934;28;20866;-85
2022/01/31 08:18:28;;;;;;;24.87;16.90;;;;;;;;;;5080069;28;20458;-86
2022/01/31 08:20:56;;;;;;;35.50;21.27;;;;;;;;;;5080401;28;20474;-86
2022/01/31 08:23:22;;;;;;;37.10;22.90;;;;;;;;;;5111530;22;20503;-85
2022/01/31 08:25:49;;;;;;;46.93;27.50;;;;;;;;;;5077427;28;20479;-85
2022/01/31 08:28:16;;;;;;;41.07;26.90;;;;;;;;;;5083128;28;20853;-85
2022/01/31 08:30:49;;;;;;;29.00;18.67;;;;;;;;;;5082498;28;21019;-84
2022/01/31 08:33:32;;;;;;;27.50;18.50;;;;;;;;;;5082679;28;20534;-86
2022/01/31 08:35:59;;;;;;;27.30;18.77;;;;;;;;;;5080120;28;20918;-86
2022/01/31 08:38:26;;;;;;;29.73;15.90;;;;;;;;;;5082006;28;20451;-85
2022/01/31 08:40:52;;;;;;;23.10;17.20;;;;;;;;;;5082254;28;20463;-84
2022/01/31 08:43:19;;;;;;;28.53;13.63;;;;;;;;;;5081336;28;20509;-85
2022/01/31 08:45:47;;;;;;;31.53;13.30;;;;;;;;;;5081607;28;20485;-85
2022/01/31 08:48:13;;;;;;;17.80;11.53;;;;;;;;;;5082694;28;20508;-86
2022/01/31 08:50:39;;;;;;;33.27;10.37;;;;;;;;;;5082508;28;20474;-85
2022/01/31 08:53:07;;;;;;;14.63;8.87;;;;;;;;;;5085958;28;20861;-84
2022/01/31 08:55:35;;;;;;;16.37;7.03;;;;;;;;;;5084822;28;20473;-85
2022/01/31 08:58:01;;;;;;;22.07;7.37;;;;;;;;;;5086321;28;20807;-85
2022/01/31 09:00:33;;;;;;;26.00;9.40;;;;;;;;;;5086487;28;20470;-83
2022/01/31 09:03:06;;;;;;;19.10;5.40;;;;;;;;;;5089098;28;20470;-83
2022/01/31 09:05:32;;;;;;;13.83;5.27;;;;;;;;;;5087901;28;20487;-84
2022/01/31 09:07:59;;;;;;;17.90;5.57;;;;;;;;;;5087576;28;20519;-83
2022/01/31 09:10:27;;;;;;;24.00;5.40;;;;;;;;;;5085819;28;20892;-85
2022/01/31 09:12:53;;;;;;;24.27;6.03;;;;;;;;;;5088319;28;20474;-84
2022/01/31 09:15:19;;;;;;;14.07;5.07;;;;;;;;;;5088079;28;20551;-85
2022/01/31 09:17:45;;;;;;;11.53;5.20;;;;;;;;;;5088112;28;20447;-84
2022/01/31 09:20:12;;;;;;;15.07;4.30;;;;;;;;;;5088251;28;20903;-84
2022/01/31 09:22:38;;;;;;;21.20;5.20;;;;;;;;;;5088188;28;20499;-83
2022/01/31 09:25:05;;;;;;;8.43;3.97;;;;;;;;;;5087511;28;20486;-84
2022/01/31 09:27:33;;;;;;;8.90;4.20;;;;;;;;;;5090321;28;20446;-83
2022/01/31 09:30:00;;;;;;;14.90;4.80;;;;;;;;;;5088099;28;20494;-83
2022/01/31 09:32:26;;;;;;;8.77;3.50;;;;;;;;;;5089905;28;20475;-84
2022/01/31 09:34:53;;;;;;;14.50;5.17;;;;;;;;;;5087618;28;20552;-84
2022/01/31 09:37:21;;;;;;;11.10;4.03;;;;;;;;;;5089485;28;20462;-84
2022/01/31 09:39:48;;;;;;;20.70;5.90;;;;;;;;;;5089635;28;20501;-84
2022/01/31 09:42:22;;;;;;;10.53;3.70;;;;;;;;;;5086296;28;20462;-84
2022/01/31 09:45:04;;;;;;;13.83;3.97;;;;;;;;;;5088852;28;20480;-83
2022/01/31 09:48:31;;;;;;;12.53;3.40;;;;;;;;;;5089343;28;20447;-84
2022/01/31 09:50:21;;;;;;;16.00;2.70;;;;;;;;;;5089873;28;20498;-83
2022/01/31 09:52:48;;;;;;;11.20;3.20;;;;;;;;;;5089554;28;20999;-83
2022/01/31 09:55:14;;;;;;;23.80;3.83;;;;;;;;;;5088526;28;20471;-84
2022/01/31 09:57:40;;;;;;;11.13;2.90;;;;;;;;;;5085480;28;20470;-82
2022/01/31 10:00:09;;;;;;;9.67;2.43;;;;;;;;;;5086598;28;20483;-84
2022/01/31 10:02:35;;;;;;;16.30;3.87;;;;;;;;;;5087583;28;20438;-83
2022/01/31 10:05:01;;;;;;;10.60;3.50;;;;;;;;;;5088428;28;20474;-83
2022/01/31 10:07:42;;;;;;;10.13;2.80;;;;;;;;;;5089530;28;20446;-82
2022/01/31 10:10:17;;;;;;;9.10;2.67;;;;;;;;;;5092469;28;20470;-83
2022/01/31 10:18:13;;;;;;;9.93;3.40;;;;;;;;;;5089941;28;20813;-84
2022/01/31 10:20:39;;;;;;;7.17;3.90;;;;;;;;;;5089129;28;20608;-84
2022/01/31 10:23:07;;;;;;;14.90;3.53;;;;;;;;;;5089908;28;20486;-83
2022/01/31 10:25:34;;;;;;;8.97;3.07;;;;;;;;;;5090869;28;20474;-84
2022/01/31 10:28:00;;;;;;;8.33;3.23;;;;;;;;;;5089518;28;20454;-83
2022/01/31 10:30:28;;;;;;;7.13;3.40;;;;;;;;;;5087984;28;20469;-84
2022/01/31 10:32:56;;;;;;;7.00;3.67;;;;;;;;;;5089664;28;20474;-83
2022/01/31 10:35:23;;;;;;;13.97;3.67;;;;;;;;;;5089525;28;20504;-84
2022/01/31 10:37:50;;;;;;;7.77;3.00;;;;;;;;;;5086757;28;20472;-84
2022/01/31 10:46:05;;;;;;;9.23;3.10;;;;;;;;;;5051121;28;21068;-83
2022/01/31 10:51:56;;;;;;;9.80;3.20;;;;;;;;;;5088308;28;20531;-84
2022/01/31 10:54:35;;;;;;;16.30;3.40;;;;;;;;;;5086599;28;20581;-83
2022/01/31 10:57:03;;;;;;;12.83;3.50;;;;;;;;;;5085861;28;20457;-84
2022/01/31 10:59:31;;;;;;;20.93;4.47;;;;;;;;;;5085380;28;20509;-83
2022/01/31 11:01:58;;;;;;;13.10;3.70;;;;;;;;;;5086421;28;20450;-84
2022/01/31 11:04:30;;;;;;;12.40;5.40;;;;;;;;;;5086320;28;20519;-84
2022/01/31 11:06:58;;;;;;;10.33;4.23;;;;;;;;;;5087124;28;20465;-84
2022/01/31 11:09:24;;;;;;;12.73;4.10;;;;;;;;;;5086897;28;21082;-85
2022/01/31 11:11:51;;;;;;;10.70;4.93;;;;;;;;;;5087677;28;20467;-84
2022/01/31 11:14:20;;;;;;;11.87;4.67;;;;;;;;;;5086225;28;20486;-85
2022/01/31 11:16:47;;;;;;;15.80;5.90;;;;;;;;;;5087191;28;21163;-85
2022/01/31 11:19:16;;;;;;;11.30;6.20;;;;;;;;;;5086137;28;20439;-85
2022/01/31 11:21:45;;;;;;;18.00;7.20;;;;;;;;;;5084596;28;20519;-83
2022/01/31 11:24:17;;;;;;;15.43;5.17;;;;;;;;;;5081079;28;20569;-85
2022/01/31 11:26:47;;;;;;;13.03;5.00;;;;;;;;;;5085438;28;20491;-84
2022/01/31 11:29:14;;;;;;;13.83;3.80;;;;;;;;;;5083326;28;20455;-85
2022/01/31 11:31:40;;;;;;;12.23;3.60;;;;;;;;;;5083186;28;20513;-85
2022/01/31 11:34:08;;;;;;;12.53;4.07;;;;;;;;;;5083814;28;20485;-85
2022/01/31 11:36:36;;;;;;;15.77;3.63;;;;;;;;;;5083053;28;20496;-84
2022/01/31 11:39:05;;;;;;;16.73;3.30;;;;;;;;;;5081888;28;20469;-85
2022/01/31 11:41:32;;;;;;;15.53;3.33;;;;;;;;;;5084925;28;20451;-85
2022/01/31 11:44:00;;;;;;;10.90;3.80;;;;;;;;;;5082932;28;20825;-85
2022/01/31 11:46:28;;;;;;;8.50;3.70;;;;;;;;;;5082821;28;20527;-85
2022/01/31 11:48:54;;;;;;;9.40;3.63;;;;;;;;;;5081994;28;20449;-84
2022/01/31 11:51:21;;;;;;;16.97;3.50;;;;;;;;;;5080427;28;20897;-84
2022/01/31 11:53:47;;;;;;;9.70;3.70;;;;;;;;;;5083781;28;20473;-84
2022/01/31 11:56:17;;;;;;;14.40;4.20;;;;;;;;;;5082357;28;20471;-85
2022/01/31 11:58:45;;;;;;;12.97;5.80;;;;;;;;;;5082946;28;20539;-85
2022/01/31 12:01:11;;;;;;;14.90;5.70;;;;;;;;;;5082485;28;20543;-85
2022/01/31 12:03:49;;;;;;;13.90;4.73;;;;;;;;;;5079889;28;21720;-84
2022/01/31 12:06:20;;;;;;;12.37;5.00;;;;;;;;;;5082494;28;20523;-84
2022/01/31 12:08:49;;;;;;;14.73;5.30;;;;;;;;;;5082575;28;20453;-84
2022/01/31 12:11:23;;;;;;;9.40;4.20;;;;;;;;;;5081909;28;20488;-84
2022/01/31 12:13:53;;;;;;;5.13;3.77;;;;;;;;;;5080838;28;20458;-84
2022/01/31 12:16:50;;;;;;;8.23;4.00;;;;;;;;;;5082208;28;20946;-84
2022/01/31 12:19:32;;;;;;;8.47;5.10;;;;;;;;;;5081757;28;20474;-84
2022/01/31 12:22:02;;;;;;;6.97;5.23;;;;;;;;;;5079328;28;20495;-83
2022/01/31 12:24:40;;;;;;;6.23;4.63;;;;;;;;;;5082686;28;20482;-83
2022/01/31 12:27:09;;;;;;;11.60;5.73;;;;;;;;;;5086255;28;20442;-85
2022/01/31 12:29:36;;;;;;;13.30;7.10;;;;;;;;;;5086733;28;20848;-85
2022/01/31 12:32:10;;;;;;;15.13;6.20;;;;;;;;;;5085119;28;20450;-85
2022/01/31 12:34:39;;;;;;;10.33;7.67;;;;;;;;;;5086424;28;21237;-86
2022/01/31 12:37:14;;;;;;;10.00;7.23;;;;;;;;;;5085951;28;20454;-85
2022/01/31 12:39:50;;;;;;;13.40;7.03;;;;;;;;;;5086135;28;20478;-85
2022/01/31 12:45:50;;;;;;;13.17;8.97;;;;;;;;;;5083499;28;21057;-83
2022/01/31 12:48:19;;;;;;;10.90;8.73;;;;;;;;;;5085410;28;20487;-85
2022/01/31 12:50:59;;;;;;;13.53;8.37;;;;;;;;;;5084340;28;20488;-85
2022/01/31 12:53:39;;;;;;;9.93;7.80;;;;;;;;;;5086610;28;20621;-84
2022/01/31 12:56:08;;;;;;;12.40;8.20;;;;;;;;;;5083018;28;20534;-84
2022/01/31 12:58:35;;;;;;;11.23;8.10;;;;;;;;;;5084967;28;20543;-86
2022/01/31 13:01:08;;;;;;;9.87;7.83;;;;;;;;;;5086277;28;20485;-84
2022/01/31 13:03:36;;;;;;;17.20;8.60;;;;;;;;;;5084901;28;20926;-85
2022/01/31 13:06:03;;;;;;;17.23;9.00;;;;;;;;;;5084660;28;20470;-85
2022/01/31 13:08:29;;;;;;;15.33;10.23;;;;;;;;;;5086109;28;20443;-85
2022/01/31 13:10:55;;;;;;;14.60;10.43;;;;;;;;;;5084653;28;20528;-84
2022/01/31 13:13:31;;;;;;;16.80;10.37;;;;;;;;;;5083197;28;20923;-84
2022/01/31 13:16:03;;;;;;;18.60;11.13;;;;;;;;;;5084291;28;20470;-84
2022/01/31 13:18:32;;;;;;;17.50;12.43;;;;;;;;;;5084285;28;20565;-86
2022/01/31 13:21:02;;;;;;;15.60;11.00;;;;;;;;;;5084629;28;20474;-85
2022/01/31 13:23:29;;;;;;;16.57;10.87;;;;;;;;;;5084829;28;20602;-84
2022/01/31 13:25:59;;;;;;;16.03;10.00;;;;;;;;;;5083158;28;20479;-85
2022/01/31 13:28:25;;;;;;;17.33;10.73;;;;;;;;;;5083577;28;20493;-85
2022/01/31 13:30:52;;;;;;;15.63;10.37;;;;;;;;;;5083879;28;20489;-85
2022/01/31 13:33:18;;;;;;;16.00;10.37;;;;;;;;;;5085668;28;20564;-84
2022/01/31 13:35:46;;;;;;;13.63;9.10;;;;;;;;;;5084907;28;20525;-84
2022/01/31 13:38:20;;;;;;;15.77;10.20;;;;;;;;;;5085604;28;20453;-84
2022/01/31 13:40:49;;;;;;;16.60;10.07;;;;;;;;;;5084376;28;20490;-85
2022/01/31 13:43:17;;;;;;;12.87;9.43;;;;;;;;;;5084664;28;20497;-84
2022/01/31 13:45:51;;;;;;;12.80;9.70;;;;;;;;;;5083513;28;20474;-83
2022/01/31 13:48:30;;;;;;;14.30;9.80;;;;;;;;;;5086112;28;20461;-85
2022/01/31 13:51:00;;;;;;;16.80;11.33;;;;;;;;;;5084981;28;20553;-85
2022/01/31 13:53:33;;;;;;;15.60;9.47;;;;;;;;;;5085175;28;20879;-84
2022/01/31 13:55:59;;;;;;;15.97;10.20;;;;;;;;;;5083347;28;20481;-83
2022/01/31 13:58:27;;;;;;;17.93;11.67;;;;;;;;;;5085505;28;20446;-85
2022/01/31 14:00:54;;;;;;;15.03;10.23;;;;;;;;;;5083083;28;20483;-85
2022/01/31 14:03:20;;;;;;;16.77;11.50;;;;;;;;;;5085046;28;20896;-85
2022/01/31 14:05:48;;;;;;;17.57;12.20;;;;;;;;;;5085294;28;20474;-83
2022/01/31 14:08:14;;;;;;;16.87;12.30;;;;;;;;;;5087491;28;20947;-84
2022/01/31 14:10:44;;;;;;;18.47;11.97;;;;;;;;;;5083503;28;20508;-88
2022/01/31 14:13:10;;;;;;;17.93;12.70;;;;;;;;;;5083741;28;20919;-84
2022/01/31 14:15:42;;;;;;;20.70;13.57;;;;;;;;;;5082246;28;20539;-85
2022/01/31 14:18:10;;;;;;;17.57;12.77;;;;;;;;;;5083278;28;20458;-85
2022/01/31 14:20:36;;;;;;;19.60;13.27;;;;;;;;;;5084217;28;20572;-85
2022/01/31 14:23:03;;;;;;;21.10;13.13;;;;;;;;;;5084719;28;21196;-85
2022/01/31 14:25:35;;;;;;;19.60;13.70;;;;;;;;;;5095430;22;20470;-84
2022/01/31 14:28:03;;;;;;;20.10;14.37;;;;;;;;;;5069199;28;20451;-85
2022/01/31 14:30:29;;;;;;;19.80;14.13;;;;;;;;;;5068610;28;20516;-84
2022/01/31 14:32:56;;;;;;;20.20;13.50;;;;;;;;;;5070062;28;20960;-87
2022/01/31 14:35:23;;;;;;;18.60;14.13;;;;;;;;;;5076988;28;20485;-85
2022/01/31 14:37:51;;;;;;;22.03;15.43;;;;;;;;;;5076977;28;20991;-83
2022/01/31 14:40:38;;;;;;;24.00;14.70;;;;;;;;;;5078808;28;20535;-85
2022/01/31 14:43:15;;;;;;;38.93;15.37;;;;;;;;;;5077195;28;20461;-87
2022/01/31 14:48:25;;;;;;;21.77;14.27;;;;;;;;;;5077066;28;20446;-87
2022/01/31 14:50:51;;;;;;;21.10;15.50;;;;;;;;;;5075291;28;20475;-86
2022/01/31 14:53:18;;;;;;;23.67;14.10;;;;;;;;;;5078158;28;20454;-87